sensor_id;sensor_type;location;lat;lon;timestamp;temperature;humidity
48604;DHT22;32708;51.212;6.788;2023-07-31T00:01:47;17.40;99.90
48604;DHT22;32708;51.212;6.788;2023-07-31T00:04:13;17.40;99.90
48604;DHT22;32708;51.212;6.788;2023-07-31T00:06:39;17.30;99.90
48604;DHT22;32708;51.212;6.788;2023-07-31T00:09:05;17.40;99.90
48604;DHT22;32708;51.212;6.788;2023-07-31T00:11:31;17.40;99.90
48604;DHT22;32708;51.212;6.788;2023-07-31T00:13:58;17.40;99.90
48604;DHT22;32708;51.212;6.788;2023-07-31T00:16:24;17.40;99.90
48604;DHT22;32708;51.212;6.788;2023-07-31T00:18:53;17.40;99.90
48604;DHT22;32708;51.212;6.788;2023-07-31T00:21:19;17.40;99.90
48604;DHT22;32708;51.212;6.788;2023-07-31T00:23:45;17.40;99.90
48604;DHT22;32708;51.212;6.788;2023-07-31T00:26:11;17.40;99.90
48604;DHT22;32708;51.212;6.788;2023-07-31T00:28:37;17.40;99.90
48604;DHT22;32708;51.212;6.788;2023-07-31T00:31:04;17.40;99.90
48604;DHT22;32708;51.212;6.788;2023-07-31T00:33:31;17.50;99.90
48604;DHT22;32708;51.212;6.788;2023-07-31T00:35:57;17.50;99.90
48604;DHT22;32708;51.212;6.788;2023-07-31T00:38:25;17.50;99.90
48604;DHT22;32708;51.212;6.788;2023-07-31T00:40:52;17.50;99.90
48604;DHT22;32708;51.212;6.788;2023-07-31T00:43:19;17.50;99.90
48604;DHT22;32708;51.212;6.788;2023-07-31T00:45:45;17.50;99.90
48604;DHT22;32708;51.212;6.788;2023-07-31T00:48:11;17.50;99.90
48604;DHT22;32708;51.212;6.788;2023-07-31T00:50:38;17.50;99.90
48604;DHT22;32708;51.212;6.788;2023-07-31T00:53:05;17.50;99.90
48604;DHT22;32708;51.212;6.788;2023-07-31T00:55:33;17.50;99.90
48604;DHT22;32708;51.212;6.788;2023-07-31T00:57:59;17.50;99.90
48604;DHT22;32708;51.212;6.788;2023-07-31T01:00:26;17.50;99.90
48604;DHT22;32708;51.212;6.788;2023-07-31T01:02:52;17.60;99.90
48604;DHT22;32708;51.212;6.788;2023-07-31T01:05:29;17.60;99.90
48604;DHT22;32708;51.212;6.788;2023-07-31T01:08:18;17.50;99.90
48604;DHT22;32708;51.212;6.788;2023-07-31T01:11:15;17.60;99.90
48604;DHT22;32708;51.212;6.788;2023-07-31T01:14:02;17.60;99.90
48604;DHT22;32708;51.212;6.788;2023-07-31T01:16:29;17.50;99.90
48604;DHT22;32708;51.212;6.788;2023-07-31T01:18:55;17.60;99.90
48604;DHT22;32708;51.212;6.788;2023-07-31T01:22:07;17.60;99.90
48604;DHT22;32708;51.212;6.788;2023-07-31T01:27:48;17.60;99.90
48604;DHT22;32708;51.212;6.788;2023-07-31T01:30:26;17.50;99.90
48604;DHT22;32708;51.212;6.788;2023-07-31T01:32:56;17.50;99.90
48604;DHT22;32708;51.212;6.788;2023-07-31T01:35:23;17.50;99.90
48604;DHT22;32708;51.212;6.788;2023-07-31T01:37:52;17.50;99.90
48604;DHT22;32708;51.212;6.788;2023-07-31T01:40:20;17.50;99.90
48604;DHT22;32708;51.212;6.788;2023-07-31T01:42:46;17.50;99.90
48604;DHT22;32708;51.212;6.788;2023-07-31T01:45:14;17.60;99.90
48604;DHT22;32708;51.212;6.788;2023-07-31T01:47:40;17.50;99.90
48604;DHT22;32708;51.212;6.788;2023-07-31T01:50:06;17.60;99.90
48604;DHT22;32708;51.212;6.788;2023-07-31T01:52:33;17.50;99.90
48604;DHT22;32708;51.212;6.788;2023-07-31T01:54:59;17.50;99.90
48604;DHT22;32708;51.212;6.788;2023-07-31T01:57:25;17.60;99.90
48604;DHT22;32708;51.212;6.788;2023-07-31T01:59:51;17.60;99.90
48604;DHT22;32708;51.212;6.788;2023-07-31T02:02:19;17.50;99.90
48604;DHT22;32708;51.212;6.788;2023-07-31T02:04:46;17.60;99.90
48604;DHT22;32708;51.212;6.788;2023-07-31T02:07:12;17.70;99.90
48604;DHT22;32708;51.212;6.788;2023-07-31T02:09:39;17.70;99.90
48604;DHT22;32708;51.212;6.788;2023-07-31T02:12:05;17.60;99.90
48604;DHT22;32708;51.212;6.788;2023-07-31T02:14:31;17.60;99.90
48604;DHT22;32708;51.212;6.788;2023-07-31T02:16:57;17.70;99.90
48604;DHT22;32708;51.212;6.788;2023-07-31T02:19:25;17.60;99.90
48604;DHT22;32708;51.212;6.788;2023-07-31T02:21:51;17.60;99.90
48604;DHT22;32708;51.212;6.788;2023-07-31T02:24:17;18.20;99.90
48604;DHT22;32708;51.212;6.788;2023-07-31T02:26:43;17.60;99.90
48604;DHT22;32708;51.212;6.788;2023-07-31T02:29:09;17.60;99.90
48604;DHT22;32708;51.212;6.788;2023-07-31T02:31:35;17.70;99.90
48604;DHT22;32708;51.212;6.788;2023-07-31T02:34:01;17.70;99.90
48604;DHT22;32708;51.212;6.788;2023-07-31T02:36:27;17.70;99.90
48604;DHT22;32708;51.212;6.788;2023-07-31T02:38:55;17.80;99.90
48604;DHT22;32708;51.212;6.788;2023-07-31T02:41:21;17.70;99.90
48604;DHT22;32708;51.212;6.788;2023-07-31T02:43:48;17.80;99.90
48604;DHT22;32708;51.212;6.788;2023-07-31T02:46:14;17.80;99.90
48604;DHT22;32708;51.212;6.788;2023-07-31T02:48:40;17.80;99.90
48604;DHT22;32708;51.212;6.788;2023-07-31T02:51:06;17.80;99.90
48604;DHT22;32708;51.212;6.788;2023-07-31T02:53:32;17.70;99.90
48604;DHT22;32708;51.212;6.788;2023-07-31T02:55:58;17.80;99.90
48604;DHT22;32708;51.212;6.788;2023-07-31T02:58:25;17.80;99.90
48604;DHT22;32708;51.212;6.788;2023-07-31T03:00:51;17.80;99.90
48604;DHT22;32708;51.212;6.788;2023-07-31T03:03:17;17.80;99.90
48604;DHT22;32708;51.212;6.788;2023-07-31T03:05:43;17.90;99.90
48604;DHT22;32708;51.212;6.788;2023-07-31T03:08:09;17.90;99.90
48604;DHT22;32708;51.212;6.788;2023-07-31T03:10:35;17.90;99.90
48604;DHT22;32708;51.212;6.788;2023-07-31T03:13:01;18.00;99.90
48604;DHT22;32708;51.212;6.788;2023-07-31T03:15:27;18.00;99.90
48604;DHT22;32708;51.212;6.788;2023-07-31T03:17:53;17.90;99.90
48604;DHT22;32708;51.212;6.788;2023-07-31T03:20:19;17.90;99.90
48604;DHT22;32708;51.212;6.788;2023-07-31T03:22:46;17.90;99.90
48604;DHT22;32708;51.212;6.788;2023-07-31T03:25:12;17.90;99.90
48604;DHT22;32708;51.212;6.788;2023-07-31T03:27:38;18.00;99.90
48604;DHT22;32708;51.212;6.788;2023-07-31T03:30:05;18.00;99.90
48604;DHT22;32708;51.212;6.788;2023-07-31T03:32:32;18.00;99.90
48604;DHT22;32708;51.212;6.788;2023-07-31T03:34:58;18.10;99.90
48604;DHT22;32708;51.212;6.788;2023-07-31T03:37:25;18.00;99.90
48604;DHT22;32708;51.212;6.788;2023-07-31T03:39:52;18.00;99.90
48604;DHT22;32708;51.212;6.788;2023-07-31T03:42:19;18.00;99.90
48604;DHT22;32708;51.212;6.788;2023-07-31T03:44:45;17.90;99.90
48604;DHT22;32708;51.212;6.788;2023-07-31T03:47:11;18.00;99.90
48604;DHT22;32708;51.212;6.788;2023-07-31T03:49:37;18.00;99.90
48604;DHT22;32708;51.212;6.788;2023-07-31T03:52:04;18.00;99.90
48604;DHT22;32708;51.212;6.788;2023-07-31T03:54:30;18.00;99.90
48604;DHT22;32708;51.212;6.788;2023-07-31T03:56:56;18.00;99.90
48604;DHT22;32708;51.212;6.788;2023-07-31T03:59:22;18.00;99.90
48604;DHT22;32708;51.212;6.788;2023-07-31T04:01:48;18.00;99.90
48604;DHT22;32708;51.212;6.788;2023-07-31T04:04:14;18.00;99.90
48604;DHT22;32708;51.212;6.788;2023-07-31T04:06:41;18.00;99.90
48604;DHT22;32708;51.212;6.788;2023-07-31T04:09:07;17.90;99.90
48604;DHT22;32708;51.212;6.788;2023-07-31T04:11:33;18.10;99.90
48604;DHT22;32708;51.212;6.788;2023-07-31T04:13:59;18.10;99.90
48604;DHT22;32708;51.212;6.788;2023-07-31T04:16:25;18.10;99.90
48604;DHT22;32708;51.212;6.788;2023-07-31T04:18:51;18.10;99.90
48604;DHT22;32708;51.212;6.788;2023-07-31T04:21:17;18.00;99.90
48604;DHT22;32708;51.212;6.788;2023-07-31T04:23:43;18.00;99.90
48604;DHT22;32708;51.212;6.788;2023-07-31T04:26:09;17.90;99.90
48604;DHT22;32708;51.212;6.788;2023-07-31T04:28:35;17.90;99.90
48604;DHT22;32708;51.212;6.788;2023-07-31T04:31:01;17.90;99.90
48604;DHT22;32708;51.212;6.788;2023-07-31T04:33:28;18.00;99.90
48604;DHT22;32708;51.212;6.788;2023-07-31T04:35:55;17.90;99.90
48604;DHT22;32708;51.212;6.788;2023-07-31T04:38:22;17.90;99.90
48604;DHT22;32708;51.212;6.788;2023-07-31T04:40:48;17.90;99.90
48604;DHT22;32708;51.212;6.788;2023-07-31T04:43:14;18.10;99.90
48604;DHT22;32708;51.212;6.788;2023-07-31T04:45:45;18.50;99.90
48604;DHT22;32708;51.212;6.788;2023-07-31T04:48:13;18.10;99.90
48604;DHT22;32708;51.212;6.788;2023-07-31T04:50:40;18.10;99.90
48604;DHT22;32708;51.212;6.788;2023-07-31T04:53:06;18.00;99.90
48604;DHT22;32708;51.212;6.788;2023-07-31T04:55:32;18.10;99.90
48604;DHT22;32708;51.212;6.788;2023-07-31T04:57:59;18.10;99.90
48604;DHT22;32708;51.212;6.788;2023-07-31T05:00:25;18.20;99.90
48604;DHT22;32708;51.212;6.788;2023-07-31T05:02:51;18.10;99.90
48604;DHT22;32708;51.212;6.788;2023-07-31T05:05:18;18.20;99.90
48604;DHT22;32708;51.212;6.788;2023-07-31T05:07:44;18.20;99.90
48604;DHT22;32708;51.212;6.788;2023-07-31T05:10:10;18.00;99.90
48604;DHT22;32708;51.212;6.788;2023-07-31T05:12:36;18.40;99.90
48604;DHT22;32708;51.212;6.788;2023-07-31T05:15:03;18.40;99.90
48604;DHT22;32708;51.212;6.788;2023-07-31T05:17:30;18.40;99.90
48604;DHT22;32708;51.212;6.788;2023-07-31T05:19:57;18.40;99.90
48604;DHT22;32708;51.212;6.788;2023-07-31T05:22:23;18.50;99.90
48604;DHT22;32708;51.212;6.788;2023-07-31T05:24:49;18.50;99.90
48604;DHT22;32708;51.212;6.788;2023-07-31T05:27:15;18.50;99.90
48604;DHT22;32708;51.212;6.788;2023-07-31T05:29:44;18.50;99.90
48604;DHT22;32708;51.212;6.788;2023-07-31T05:32:11;18.60;99.90
48604;DHT22;32708;51.212;6.788;2023-07-31T05:34:38;18.50;99.90
48604;DHT22;32708;51.212;6.788;2023-07-31T05:37:04;18.50;99.90
48604;DHT22;32708;51.212;6.788;2023-07-31T05:39:31;18.50;99.90
48604;DHT22;32708;51.212;6.788;2023-07-31T05:41:58;18.40;99.90
48604;DHT22;32708;51.212;6.788;2023-07-31T05:44:24;18.50;99.90
48604;DHT22;32708;51.212;6.788;2023-07-31T05:46:50;18.50;99.90
48604;DHT22;32708;51.212;6.788;2023-07-31T05:49:16;18.70;99.90
48604;DHT22;32708;51.212;6.788;2023-07-31T05:51:42;18.70;99.90
48604;DHT22;32708;51.212;6.788;2023-07-31T05:54:08;18.60;99.90
48604;DHT22;32708;51.212;6.788;2023-07-31T05:56:34;18.60;99.90
48604;DHT22;32708;51.212;6.788;2023-07-31T05:59:01;18.70;99.90
48604;DHT22;32708;51.212;6.788;2023-07-31T06:01:28;18.70;99.90
48604;DHT22;32708;51.212;6.788;2023-07-31T06:03:54;18.60;99.90
48604;DHT22;32708;51.212;6.788;2023-07-31T06:06:20;18.50;99.90
48604;DHT22;32708;51.212;6.788;2023-07-31T06:08:46;18.50;99.90
48604;DHT22;32708;51.212;6.788;2023-07-31T06:11:13;18.50;99.90
48604;DHT22;32708;51.212;6.788;2023-07-31T06:13:39;18.30;99.90
48604;DHT22;32708;51.212;6.788;2023-07-31T06:16:05;18.30;99.90
48604;DHT22;32708;51.212;6.788;2023-07-31T06:18:32;18.20;99.90
48604;DHT22;32708;51.212;6.788;2023-07-31T06:20:58;18.20;99.90
48604;DHT22;32708;51.212;6.788;2023-07-31T06:23:25;18.20;99.90
48604;DHT22;32708;51.212;6.788;2023-07-31T06:25:51;18.10;99.90
48604;DHT22;32708;51.212;6.788;2023-07-31T06:28:17;18.00;99.90
48604;DHT22;32708;51.212;6.788;2023-07-31T06:30:43;18.00;99.90
48604;DHT22;32708;51.212;6.788;2023-07-31T06:33:09;17.90;99.90
48604;DHT22;32708;51.212;6.788;2023-07-31T06:35:35;17.90;99.90
48604;DHT22;32708;51.212;6.788;2023-07-31T06:38:01;17.90;99.90
48604;DHT22;32708;51.212;6.788;2023-07-31T06:40:29;17.90;99.90
48604;DHT22;32708;51.212;6.788;2023-07-31T06:42:55;18.00;99.90
48604;DHT22;32708;51.212;6.788;2023-07-31T06:45:22;17.90;99.90
48604;DHT22;32708;51.212;6.788;2023-07-31T06:47:49;17.90;99.90
48604;DHT22;32708;51.212;6.788;2023-07-31T06:50:15;18.00;99.90
48604;DHT22;32708;51.212;6.788;2023-07-31T06:52:41;17.90;99.90
48604;DHT22;32708;51.212;6.788;2023-07-31T06:55:19;17.90;99.90
48604;DHT22;32708;51.212;6.788;2023-07-31T06:57:50;17.90;99.90
48604;DHT22;32708;51.212;6.788;2023-07-31T07:00:20;18.00;99.90
48604;DHT22;32708;51.212;6.788;2023-07-31T07:02:46;18.00;99.90
48604;DHT22;32708;51.212;6.788;2023-07-31T07:05:14;18.00;99.90
48604;DHT22;32708;51.212;6.788;2023-07-31T07:07:40;18.00;99.90
48604;DHT22;32708;51.212;6.788;2023-07-31T07:10:07;18.10;99.90
48604;DHT22;32708;51.212;6.788;2023-07-31T07:12:35;18.10;99.90
48604;DHT22;32708;51.212;6.788;2023-07-31T07:15:02;18.10;99.90
48604;DHT22;32708;51.212;6.788;2023-07-31T07:17:31;18.10;99.90
48604;DHT22;32708;51.212;6.788;2023-07-31T07:19:58;18.00;99.90
48604;DHT22;32708;51.212;6.788;2023-07-31T07:22:25;18.00;99.90
48604;DHT22;32708;51.212;6.788;2023-07-31T07:24:53;17.90;99.90
48604;DHT22;32708;51.212;6.788;2023-07-31T07:27:19;17.90;99.90
48604;DHT22;32708;51.212;6.788;2023-07-31T07:29:46;17.80;99.90
48604;DHT22;32708;51.212;6.788;2023-07-31T07:32:12;17.90;99.90
48604;DHT22;32708;51.212;6.788;2023-07-31T07:34:39;18.00;99.90
48604;DHT22;32708;51.212;6.788;2023-07-31T07:37:05;18.00;99.90
48604;DHT22;32708;51.212;6.788;2023-07-31T07:39:31;18.00;99.90
48604;DHT22;32708;51.212;6.788;2023-07-31T07:41:58;17.90;99.90
48604;DHT22;32708;51.212;6.788;2023-07-31T07:44:24;17.90;99.90
48604;DHT22;32708;51.212;6.788;2023-07-31T07:46:50;18.00;99.90
48604;DHT22;32708;51.212;6.788;2023-07-31T07:49:19;17.90;99.90
48604;DHT22;32708;51.212;6.788;2023-07-31T07:51:45;18.00;99.90
48604;DHT22;32708;51.212;6.788;2023-07-31T07:54:11;17.90;99.90
48604;DHT22;32708;51.212;6.788;2023-07-31T07:56:44;17.80;99.90
48604;DHT22;32708;51.212;6.788;2023-07-31T07:59:11;17.70;99.90
48604;DHT22;32708;51.212;6.788;2023-07-31T08:01:37;17.80;99.90
48604;DHT22;32708;51.212;6.788;2023-07-31T08:04:04;17.80;99.90
48604;DHT22;32708;51.212;6.788;2023-07-31T08:06:32;17.80;99.90
48604;DHT22;32708;51.212;6.788;2023-07-31T08:08:59;16.90;99.90
48604;DHT22;32708;51.212;6.788;2023-07-31T08:11:31;17.60;99.90
48604;DHT22;32708;51.212;6.788;2023-07-31T08:13:58;17.80;99.90
48604;DHT22;32708;51.212;6.788;2023-07-31T08:16:24;17.80;99.90
48604;DHT22;32708;51.212;6.788;2023-07-31T08:18:51;17.80;99.90
48604;DHT22;32708;51.212;6.788;2023-07-31T08:21:17;17.80;99.90
48604;DHT22;32708;51.212;6.788;2023-07-31T08:23:43;17.80;99.90
48604;DHT22;32708;51.212;6.788;2023-07-31T08:26:18;17.80;99.90
48604;DHT22;32708;51.212;6.788;2023-07-31T08:28:45;17.80;99.90
48604;DHT22;32708;51.212;6.788;2023-07-31T08:31:11;17.80;99.90
48604;DHT22;32708;51.212;6.788;2023-07-31T08:33:38;17.80;99.90
48604;DHT22;32708;51.212;6.788;2023-07-31T08:36:06;17.90;99.90
48604;DHT22;32708;51.212;6.788;2023-07-31T08:38:32;17.90;99.90
48604;DHT22;32708;51.212;6.788;2023-07-31T08:40:59;17.70;99.90
48604;DHT22;32708;51.212;6.788;2023-07-31T08:43:27;17.80;99.90
48604;DHT22;32708;51.212;6.788;2023-07-31T08:45:56;17.80;99.90
48604;DHT22;32708;51.212;6.788;2023-07-31T08:48:23;17.80;99.90
48604;DHT22;32708;51.212;6.788;2023-07-31T08:50:52;17.80;99.90
48604;DHT22;32708;51.212;6.788;2023-07-31T08:53:19;17.80;99.90
48604;DHT22;32708;51.212;6.788;2023-07-31T08:55:46;17.80;99.90
48604;DHT22;32708;51.212;6.788;2023-07-31T08:58:15;17.80;99.90
48604;DHT22;32708;51.212;6.788;2023-07-31T09:00:43;17.70;99.90
48604;DHT22;32708;51.212;6.788;2023-07-31T09:03:17;17.80;99.90
48604;DHT22;32708;51.212;6.788;2023-07-31T09:05:46;17.70;99.90
48604;DHT22;32708;51.212;6.788;2023-07-31T09:08:17;17.70;99.90
48604;DHT22;32708;51.212;6.788;2023-07-31T09:10:46;17.70;99.90
48604;DHT22;32708;51.212;6.788;2023-07-31T09:13:13;17.80;99.90
48604;DHT22;32708;51.212;6.788;2023-07-31T09:15:45;17.80;99.90
48604;DHT22;32708;51.212;6.788;2023-07-31T09:18:15;17.80;99.90
48604;DHT22;32708;51.212;6.788;2023-07-31T09:20:44;17.90;99.90
48604;DHT22;32708;51.212;6.788;2023-07-31T09:23:13;17.90;99.90
48604;DHT22;32708;51.212;6.788;2023-07-31T09:25:44;18.00;99.90
48604;DHT22;32708;51.212;6.788;2023-07-31T09:28:11;18.10;99.90
48604;DHT22;32708;51.212;6.788;2023-07-31T09:30:49;19.00;99.90
48604;DHT22;32708;51.212;6.788;2023-07-31T09:33:17;18.00;99.90
48604;DHT22;32708;51.212;6.788;2023-07-31T09:35:45;17.90;99.90
48604;DHT22;32708;51.212;6.788;2023-07-31T09:38:15;17.90;99.90
48604;DHT22;32708;51.212;6.788;2023-07-31T09:40:45;17.90;99.90
48604;DHT22;32708;51.212;6.788;2023-07-31T09:43:17;18.00;99.90
48604;DHT22;32708;51.212;6.788;2023-07-31T09:45:45;18.00;99.90
48604;DHT22;32708;51.212;6.788;2023-07-31T09:48:18;17.90;99.90
48604;DHT22;32708;51.212;6.788;2023-07-31T09:50:47;18.00;99.90
48604;DHT22;32708;51.212;6.788;2023-07-31T09:53:15;18.00;99.90
48604;DHT22;32708;51.212;6.788;2023-07-31T09:55:43;18.00;99.90
48604;DHT22;32708;51.212;6.788;2023-07-31T09:58:10;17.90;99.90
48604;DHT22;32708;51.212;6.788;2023-07-31T10:00:38;17.90;99.90
48604;DHT22;32708;51.212;6.788;2023-07-31T10:03:08;17.80;99.90
48604;DHT22;32708;51.212;6.788;2023-07-31T10:05:45;17.90;99.90
48604;DHT22;32708;51.212;6.788;2023-07-31T10:08:16;17.90;99.90
48604;DHT22;32708;51.212;6.788;2023-07-31T10:10:46;17.90;99.90
48604;DHT22;32708;51.212;6.788;2023-07-31T10:13:13;17.90;99.90
48604;DHT22;32708;51.212;6.788;2023-07-31T10:15:40;17.90;99.90
48604;DHT22;32708;51.212;6.788;2023-07-31T10:18:09;17.90;99.90
48604;DHT22;32708;51.212;6.788;2023-07-31T10:20:37;18.10;99.90
48604;DHT22;32708;51.212;6.788;2023-07-31T10:23:03;18.00;99.90
48604;DHT22;32708;51.212;6.788;2023-07-31T10:25:30;18.00;99.90
48604;DHT22;32708;51.212;6.788;2023-07-31T10:27:58;18.20;99.90
48604;DHT22;32708;51.212;6.788;2023-07-31T10:30:30;18.40;99.90
48604;DHT22;32708;51.212;6.788;2023-07-31T10:33:01;18.30;99.90
48604;DHT22;32708;51.212;6.788;2023-07-31T10:35:28;18.40;99.90
48604;DHT22;32708;51.212;6.788;2023-07-31T10:37:54;18.50;99.90
48604;DHT22;32708;51.212;6.788;2023-07-31T10:40:26;19.20;99.90
48604;DHT22;32708;51.212;6.788;2023-07-31T10:42:55;18.80;99.90
48604;DHT22;32708;51.212;6.788;2023-07-31T10:45:34;18.90;99.90
48604;DHT22;32708;51.212;6.788;2023-07-31T10:48:12;19.00;99.90
48604;DHT22;32708;51.212;6.788;2023-07-31T10:50:50;19.30;99.90
48604;DHT22;32708;51.212;6.788;2023-07-31T10:53:32;19.40;99.90
48604;DHT22;32708;51.212;6.788;2023-07-31T10:55:59;19.40;99.90
48604;DHT22;32708;51.212;6.788;2023-07-31T10:58:26;19.40;99.90
48604;DHT22;32708;51.212;6.788;2023-07-31T11:00:57;19.40;99.90
48604;DHT22;32708;51.212;6.788;2023-07-31T11:03:40;19.40;99.90
48604;DHT22;32708;51.212;6.788;2023-07-31T11:06:08;19.30;99.90
48604;DHT22;32708;51.212;6.788;2023-07-31T11:08:41;19.30;99.90
48604;DHT22;32708;51.212;6.788;2023-07-31T11:11:12;19.30;99.90
48604;DHT22;32708;51.212;6.788;2023-07-31T11:13:47;19.40;99.90
48604;DHT22;32708;51.212;6.788;2023-07-31T11:16:25;19.40;99.90
48604;DHT22;32708;51.212;6.788;2023-07-31T11:18:52;19.40;99.90
48604;DHT22;32708;51.212;6.788;2023-07-31T11:21:24;19.40;99.90
48604;DHT22;32708;51.212;6.788;2023-07-31T11:23:55;19.40;99.90
48604;DHT22;32708;51.212;6.788;2023-07-31T11:26:24;19.50;99.90
48604;DHT22;32708;51.212;6.788;2023-07-31T11:28:51;19.60;99.90
48604;DHT22;32708;51.212;6.788;2023-07-31T11:31:18;19.60;99.90
48604;DHT22;32708;51.212;6.788;2023-07-31T11:33:44;19.60;99.90
48604;DHT22;32708;51.212;6.788;2023-07-31T11:36:18;19.60;99.90
48604;DHT22;32708;51.212;6.788;2023-07-31T11:38:46;19.50;99.90
48604;DHT22;32708;51.212;6.788;2023-07-31T11:41:17;19.50;99.90
48604;DHT22;32708;51.212;6.788;2023-07-31T11:43:46;19.60;99.90
48604;DHT22;32708;51.212;6.788;2023-07-31T11:46:13;19.60;99.90
48604;DHT22;32708;51.212;6.788;2023-07-31T11:48:40;19.70;99.90
48604;DHT22;32708;51.212;6.788;2023-07-31T11:51:10;19.80;99.90
48604;DHT22;32708;51.212;6.788;2023-07-31T11:56:12;19.80;99.90
48604;DHT22;32708;51.212;6.788;2023-07-31T11:58:41;19.90;99.90
48604;DHT22;32708;51.212;6.788;2023-07-31T12:01:09;19.90;99.90
48604;DHT22;32708;51.212;6.788;2023-07-31T12:03:35;19.80;99.90
48604;DHT22;32708;51.212;6.788;2023-07-31T12:06:02;19.90;99.90
48604;DHT22;32708;51.212;6.788;2023-07-31T12:08:29;20.00;99.90
48604;DHT22;32708;51.212;6.788;2023-07-31T12:11:03;19.80;99.90
48604;DHT22;32708;51.212;6.788;2023-07-31T12:13:32;19.80;99.90
48604;DHT22;32708;51.212;6.788;2023-07-31T12:16:03;19.70;99.90
48604;DHT22;32708;51.212;6.788;2023-07-31T12:18:34;19.70;99.90
48604;DHT22;32708;51.212;6.788;2023-07-31T12:21:05;19.70;99.90
48604;DHT22;32708;51.212;6.788;2023-07-31T12:23:36;19.70;99.90
48604;DHT22;32708;51.212;6.788;2023-07-31T12:26:14;19.90;99.90
48604;DHT22;32708;51.212;6.788;2023-07-31T12:28:50;20.00;99.90
48604;DHT22;32708;51.212;6.788;2023-07-31T12:31:19;20.10;99.90
48604;DHT22;32708;51.212;6.788;2023-07-31T12:33:51;20.10;99.90
48604;DHT22;32708;51.212;6.788;2023-07-31T12:36:20;20.00;99.90
48604;DHT22;32708;51.212;6.788;2023-07-31T12:38:48;19.90;99.90
48604;DHT22;32708;51.212;6.788;2023-07-31T12:41:15;19.70;99.90
48604;DHT22;32708;51.212;6.788;2023-07-31T12:43:43;19.70;99.90
48604;DHT22;32708;51.212;6.788;2023-07-31T12:46:10;19.80;99.90
48604;DHT22;32708;51.212;6.788;2023-07-31T12:48:38;20.00;99.90
48604;DHT22;32708;51.212;6.788;2023-07-31T12:51:05;20.10;99.90
48604;DHT22;32708;51.212;6.788;2023-07-31T12:53:35;20.10;99.90
48604;DHT22;32708;51.212;6.788;2023-07-31T12:56:01;20.10;99.90
48604;DHT22;32708;51.212;6.788;2023-07-31T12:58:28;20.20;99.90
48604;DHT22;32708;51.212;6.788;2023-07-31T13:00:54;20.40;99.90
48604;DHT22;32708;51.212;6.788;2023-07-31T13:03:20;20.40;99.90
48604;DHT22;32708;51.212;6.788;2023-07-31T13:05:46;20.60;99.90
48604;DHT22;32708;51.212;6.788;2023-07-31T13:08:13;20.60;99.90
48604;DHT22;32708;51.212;6.788;2023-07-31T13:10:41;20.60;99.90
48604;DHT22;32708;51.212;6.788;2023-07-31T13:13:09;20.60;99.90
48604;DHT22;32708;51.212;6.788;2023-07-31T13:15:36;20.70;99.90
48604;DHT22;32708;51.212;6.788;2023-07-31T13:18:02;20.50;99.90
48604;DHT22;32708;51.212;6.788;2023-07-31T13:20:28;20.30;99.90
48604;DHT22;32708;51.212;6.788;2023-07-31T13:22:54;20.40;99.90
48604;DHT22;32708;51.212;6.788;2023-07-31T13:25:20;20.30;99.90
48604;DHT22;32708;51.212;6.788;2023-07-31T13:27:46;20.30;99.90
48604;DHT22;32708;51.212;6.788;2023-07-31T13:30:12;20.50;99.90
48604;DHT22;32708;51.212;6.788;2023-07-31T13:32:41;20.70;99.90
48604;DHT22;32708;51.212;6.788;2023-07-31T13:35:08;20.90;99.90
48604;DHT22;32708;51.212;6.788;2023-07-31T13:37:36;20.90;99.90
48604;DHT22;32708;51.212;6.788;2023-07-31T13:40:03;21.00;99.90
48604;DHT22;32708;51.212;6.788;2023-07-31T13:42:32;21.10;99.90
48604;DHT22;32708;51.212;6.788;2023-07-31T13:44:59;21.20;99.90
48604;DHT22;32708;51.212;6.788;2023-07-31T13:47:25;21.20;99.90
48604;DHT22;32708;51.212;6.788;2023-07-31T13:49:51;21.20;99.90
48604;DHT22;32708;51.212;6.788;2023-07-31T13:52:17;21.30;99.90
48604;DHT22;32708;51.212;6.788;2023-07-31T13:54:43;21.40;99.90
48604;DHT22;32708;51.212;6.788;2023-07-31T13:57:09;21.40;99.90
48604;DHT22;32708;51.212;6.788;2023-07-31T13:59:35;21.30;99.90
48604;DHT22;32708;51.212;6.788;2023-07-31T14:02:02;21.40;99.90
48604;DHT22;32708;51.212;6.788;2023-07-31T14:04:30;21.20;99.90
48604;DHT22;32708;51.212;6.788;2023-07-31T14:06:57;21.00;99.90
48604;DHT22;32708;51.212;6.788;2023-07-31T14:09:23;20.90;99.90
48604;DHT22;32708;51.212;6.788;2023-07-31T14:11:49;20.70;99.90
48604;DHT22;32708;51.212;6.788;2023-07-31T14:14:16;20.70;99.90
48604;DHT22;32708;51.212;6.788;2023-07-31T14:16:43;20.80;99.90
48604;DHT22;32708;51.212;6.788;2023-07-31T14:19:09;20.80;99.90
48604;DHT22;32708;51.212;6.788;2023-07-31T14:21:36;20.70;99.90
48604;DHT22;32708;51.212;6.788;2023-07-31T14:24:02;20.60;99.90
48604;DHT22;32708;51.212;6.788;2023-07-31T14:26:28;20.50;99.90
48604;DHT22;32708;51.212;6.788;2023-07-31T14:28:54;20.60;99.90
48604;DHT22;32708;51.212;6.788;2023-07-31T14:31:20;20.50;99.90
48604;DHT22;32708;51.212;6.788;2023-07-31T14:33:47;20.50;99.90
48604;DHT22;32708;51.212;6.788;2023-07-31T14:36:13;20.40;99.90
48604;DHT22;32708;51.212;6.788;2023-07-31T14:38:39;20.30;99.90
48604;DHT22;32708;51.212;6.788;2023-07-31T14:41:05;20.40;99.90
48604;DHT22;32708;51.212;6.788;2023-07-31T14:43:31;20.50;99.90
48604;DHT22;32708;51.212;6.788;2023-07-31T14:45:58;20.50;99.90
48604;DHT22;32708;51.212;6.788;2023-07-31T14:48:26;20.50;99.90
48604;DHT22;32708;51.212;6.788;2023-07-31T14:50:56;20.60;99.90
48604;DHT22;32708;51.212;6.788;2023-07-31T14:53:22;20.80;99.90
48604;DHT22;32708;51.212;6.788;2023-07-31T14:55:48;20.90;99.90
48604;DHT22;32708;51.212;6.788;2023-07-31T14:58:14;21.00;99.90
48604;DHT22;32708;51.212;6.788;2023-07-31T15:00:42;21.10;99.90
48604;DHT22;32708;51.212;6.788;2023-07-31T15:03:14;21.10;99.90
48604;DHT22;32708;51.212;6.788;2023-07-31T15:05:40;21.10;99.90
48604;DHT22;32708;51.212;6.788;2023-07-31T15:08:06;21.20;99.90
48604;DHT22;32708;51.212;6.788;2023-07-31T15:10:32;21.00;99.90
48604;DHT22;32708;51.212;6.788;2023-07-31T15:12:59;21.00;99.90
48604;DHT22;32708;51.212;6.788;2023-07-31T15:15:27;20.90;99.90
48604;DHT22;32708;51.212;6.788;2023-07-31T15:17:53;20.80;99.90
48604;DHT22;32708;51.212;6.788;2023-07-31T15:20:21;20.90;99.90
48604;DHT22;32708;51.212;6.788;2023-07-31T15:22:47;20.90;99.90
48604;DHT22;32708;51.212;6.788;2023-07-31T15:25:14;20.90;99.90
48604;DHT22;32708;51.212;6.788;2023-07-31T15:27:40;21.00;99.90
48604;DHT22;32708;51.212;6.788;2023-07-31T15:30:07;20.90;99.90
48604;DHT22;32708;51.212;6.788;2023-07-31T15:32:34;20.80;99.90
48604;DHT22;32708;51.212;6.788;2023-07-31T15:35:00;20.90;99.90
48604;DHT22;32708;51.212;6.788;2023-07-31T15:37:26;21.00;99.90
48604;DHT22;32708;51.212;6.788;2023-07-31T15:39:52;21.00;99.90